Time;durP1;ratioP1;P1;durP2;ratioP2;P2;SDS_P1;SDS_P2;PMS_P1;PMS_P2;Temp;Humidity;BMP_temperature;BMP_pressure;BME280_temperature;BME280_humidity;BME280_pressure;Samples;Min_cycle;Max_cycle;Signal;HPM_P1;HPM_P2
2021/09/07 00:00:42;;;;;;;24.90;14.95;;;;;;;14.98;95.07;100926.94;4995469;28;20042;-73
2021/09/07 00:03:09;;;;;;;24.73;13.60;;;;;;;15.01;94.70;100916.84;4995162;28;20046;-74
2021/09/07 00:05:36;;;;;;;19.65;13.65;;;;;;;14.99;94.94;100916.06;4979561;28;20049;-74
2021/09/07 00:08:03;;;;;;;23.30;14.48;;;;;;;15.04;95.25;100921.16;4996091;28;20047;-74
2021/09/07 00:10:31;;;;;;;21.10;13.75;;;;;;;14.97;95.45;100926.09;4995014;28;20514;-73
2021/09/07 00:12:58;;;;;;;22.80;13.77;;;;;;;14.99;95.24;100915.22;4996251;28;20034;-73
2021/09/07 00:15:26;;;;;;;22.10;14.50;;;;;;;14.95;95.79;100911.91;4995607;28;20499;-73
2021/09/07 00:17:54;;;;;;;21.25;13.85;;;;;;;14.78;96.21;100896.91;4995102;28;20046;-74
2021/09/07 00:20:23;;;;;;;22.13;13.98;;;;;;;14.86;96.01;100912.53;4996100;28;20038;-74
2021/09/07 00:22:50;;;;;;;21.48;14.65;;;;;;;14.80;96.27;100920.03;4996186;28;20049;-73
2021/09/07 00:25:17;;;;;;;24.65;13.75;;;;;;;14.67;96.34;100898.44;4994877;28;20355;-73
2021/09/07 00:27:44;;;;;;;20.27;12.80;;;;;;;14.72;96.31;100908.03;4996073;28;20046;-74
2021/09/07 00:30:12;;;;;;;23.35;13.80;;;;;;;14.70;96.69;100913.50;4996089;28;20060;-73
2021/09/07 00:32:41;;;;;;;20.88;14.40;;;;;;;14.67;96.32;100902.97;4995063;28;20061;-73
2021/09/07 00:35:11;;;;;;;21.90;15.18;;;;;;;14.71;96.25;100909.84;4995975;28;20054;-73
2021/09/07 00:37:42;;;;;;;23.35;15.13;;;;;;;14.71;96.43;100915.22;4994594;28;20083;-74
2021/09/07 00:40:10;;;;;;;24.27;13.63;;;;;;;14.72;96.00;100908.91;4995893;28;20054;-73
2021/09/07 00:42:37;;;;;;;22.27;14.70;;;;;;;14.60;96.67;100913.25;4996173;28;20392;-73
2021/09/07 00:45:07;;;;;;;23.05;14.98;;;;;;;14.62;96.84;100911.34;4994670;28;20038;-74
2021/09/07 00:47:35;;;;;;;24.90;13.57;;;;;;;14.61;96.76;100924.88;5010701;28;20050;-74
2021/09/07 00:50:02;;;;;;;20.60;14.73;;;;;;;14.62;96.62;100921.22;4995841;28;20050;-74
2021/09/07 00:52:30;;;;;;;21.52;15.30;;;;;;;14.62;96.73;100921.22;4994538;28;20044;-73
2021/09/07 00:54:58;;;;;;;25.30;14.38;;;;;;;14.62;96.61;100922.09;4995627;28;20053;-74
2021/09/07 00:57:25;;;;;;;29.17;15.02;;;;;;;14.59;96.94;100930.31;4994415;28;20046;-73
2021/09/07 00:59:53;;;;;;;21.30;14.82;;;;;;;14.50;97.01;100928.25;4995572;28;20050;-73
2021/09/07 01:02:22;;;;;;;24.58;15.18;;;;;;;14.49;97.05;100924.69;4995383;28;20100;-73
2021/09/07 01:04:50;;;;;;;23.30;14.30;;;;;;;14.53;96.89;100917.31;4995448;28;20101;-73
2021/09/07 01:07:18;;;;;;;25.77;14.80;;;;;;;14.49;97.28;100921.16;4996971;28;20054;-73
2021/09/07 01:09:45;;;;;;;22.08;14.35;;;;;;;14.50;97.05;100918.34;4999540;28;20069;-73
2021/09/07 01:12:13;;;;;;;20.92;13.93;;;;;;;14.49;96.99;100911.28;4999643;28;20050;-73
2021/09/07 01:14:41;;;;;;;22.67;13.25;;;;;;;14.45;96.93;100904.41;4999538;28;20042;-74
2021/09/07 01:17:16;;;;;;;23.90;15.23;;;;;;;14.37;97.11;100890.56;4999370;28;20058;-74
2021/09/07 01:19:47;;;;;;;21.30;13.85;;;;;;;14.38;97.08;100898.53;4999552;28;20054;-73
2021/09/07 01:22:15;;;;;;;19.83;14.10;;;;;;;14.39;96.94;100899.41;4999238;28;20137;-73
2021/09/07 01:24:43;;;;;;;29.38;14.38;;;;;;;14.36;96.89;100894.22;4997924;28;20407;-73
2021/09/07 01:27:10;;;;;;;23.40;14.32;;;;;;;14.37;96.89;100901.31;4998130;28;20105;-73
2021/09/07 01:29:39;;;;;;;19.63;13.10;;;;;;;14.39;96.86;100902.09;4999024;28;20054;-73
2021/09/07 01:32:09;;;;;;;24.93;13.73;;;;;;;14.35;96.79;100898.75;4999210;28;20053;-73
2021/09/07 01:34:36;;;;;;;19.77;13.73;;;;;;;14.35;96.96;100897.88;4997787;28;20400;-73
2021/09/07 01:37:03;;;;;;;18.42;12.98;;;;;;;14.35;96.85;100898.75;4998093;28;20077;-73
2021/09/07 01:39:30;;;;;;;22.35;13.65;;;;;;;14.33;97.05;100889.06;4999014;28;20133;-73
2021/09/07 01:41:57;;;;;;;19.77;13.10;;;;;;;14.22;97.19;100877.19;4998901;28;20498;-73
2021/09/07 01:44:24;;;;;;;22.98;14.73;;;;;;;14.18;97.43;100894.47;4997969;28;20050;-73
2021/09/07 01:46:51;;;;;;;22.70;13.30;;;;;;;14.16;97.46;100882.97;4999074;28;20364;-74
2021/09/07 01:49:18;;;;;;;21.38;13.70;;;;;;;14.19;97.17;100888.16;4999361;28;20049;-73
2021/09/07 01:51:46;;;;;;;21.02;14.13;;;;;;;14.22;97.16;100887.94;4999491;28;20432;-73
2021/09/07 01:54:15;;;;;;;22.63;14.57;;;;;;;14.25;96.76;100890.44;4998897;28;20050;-73
2021/09/07 01:56:43;;;;;;;21.15;14.27;;;;;;;14.22;97.08;100887.94;4998534;28;20054;-73
2021/09/07 01:59:10;;;;;;;18.67;12.50;;;;;;;14.17;97.24;100883.84;4997452;28;20047;-73
2021/09/07 02:01:38;;;;;;;22.45;13.77;;;;;;;14.19;97.33;100885.47;4998692;28;20043;-73
2021/09/07 02:04:07;;;;;;;23.58;12.95;;;;;;;14.16;97.24;100876.75;4997425;28;20038;-74
2021/09/07 02:06:35;;;;;;;21.75;13.15;;;;;;;14.17;97.43;100873.94;4998428;28;20060;-73
2021/09/07 02:09:04;;;;;;;19.05;13.27;;;;;;;14.17;96.89;100865.88;4998287;28;20398;-73
2021/09/07 02:11:32;;;;;;;20.88;13.27;;;;;;;14.15;97.33;100881.25;4997136;28;20351;-73
2021/09/07 02:14:00;;;;;;;18.13;14.07;;;;;;;14.13;97.27;100875.13;4998444;28;20391;-73
2021/09/07 02:16:26;;;;;;;17.20;12.93;;;;;;;14.06;97.99;100876.47;4998218;28;20053;-73
2021/09/07 02:18:53;;;;;;;21.13;14.25;;;;;;;14.07;97.71;100867.47;4996320;28;20054;-73
2021/09/07 02:21:20;;;;;;;18.42;12.93;;;;;;;14.06;98.16;100868.44;4996969;28;20066;-73
2021/09/07 02:23:48;;;;;;;17.38;12.95;;;;;;;14.05;98.13;100870.25;4997726;28;20061;-74
2021/09/07 02:26:15;;;;;;;20.60;12.70;;;;;;;14.04;97.94;100864.97;4997217;28;20054;-75
2021/09/07 02:28:42;;;;;;;21.73;13.75;;;;;;;14.11;97.90;100874.38;4998073;28;20251;-74
2021/09/07 02:31:10;;;;;;;20.75;13.52;;;;;;;14.08;97.92;100879.91;4996752;28;20340;-74
2021/09/07 02:33:37;;;;;;;23.63;13.52;;;;;;;14.06;97.88;100871.97;4997016;28;20113;-72
2021/09/07 02:36:06;;;;;;;22.20;13.68;;;;;;;14.03;98.36;100874.84;4997521;28;20352;-72
2021/09/07 02:38:33;;;;;;;21.95;13.32;;;;;;;14.05;97.83;100870.25;4997237;28;20121;-73
2021/09/07 02:41:01;;;;;;;24.13;13.57;;;;;;;14.03;97.75;100872.16;4997947;28;20448;-73
2021/09/07 02:43:29;;;;;;;21.65;13.48;;;;;;;14.02;98.30;100869.56;4997672;28;20065;-72
2021/09/07 02:45:58;;;;;;;22.13;12.98;;;;;;;13.82;98.11;100847.56;4997669;28;20048;-72
2021/09/07 02:48:26;;;;;;;18.98;12.93;;;;;;;14.00;98.19;100872.34;4997584;28;20125;-73
2021/09/07 02:50:52;;;;;;;22.33;13.40;;;;;;;13.94;98.21;100862.03;4997503;28;20046;-73
2021/09/07 02:53:19;;;;;;;18.10;13.15;;;;;;;13.79;98.57;100847.78;5012793;28;20048;-73
2021/09/07 02:55:47;;;;;;;21.35;13.80;;;;;;;13.94;98.72;100862.88;4997592;28;20057;-72
2021/09/07 02:58:16;;;;;;;25.95;13.70;;;;;;;13.91;98.97;100863.09;4997512;28;20125;-73
2021/09/07 03:00:42;;;;;;;21.30;13.07;;;;;;;13.90;99.09;100861.34;4997481;28;20077;-72
2021/09/07 03:03:10;;;;;;;19.75;12.93;;;;;;;13.91;98.96;100855.03;4997289;28;20039;-72
2021/09/07 03:05:38;;;;;;;24.02;13.60;;;;;;;13.91;99.27;100862.22;4997544;28;20092;-73
2021/09/07 03:08:06;;;;;;;21.45;13.65;;;;;;;13.87;99.26;100863.34;4996318;28;20043;-73
2021/09/07 03:10:34;;;;;;;20.52;13.77;;;;;;;13.80;99.16;100862.91;4997334;28;20082;-72
2021/09/07 03:13:01;;;;;;;22.92;13.82;;;;;;;13.86;98.89;100865.19;4997225;28;20043;-73
2021/09/07 03:15:29;;;;;;;21.65;14.18;;;;;;;13.80;99.30;100868.28;4980242;28;20451;-73
2021/09/07 03:17:56;;;;;;;20.60;13.13;;;;;;;13.80;99.37;100873.63;4997262;28;20105;-73
2021/09/07 03:20:24;;;;;;;19.17;13.38;;;;;;;13.74;99.66;100869.53;4995904;28;20148;-73
2021/09/07 03:22:51;;;;;;;19.92;13.98;;;;;;;13.75;99.70;100870.38;4996993;28;20082;-73
2021/09/07 03:25:19;;;;;;;23.48;14.18;;;;;;;13.70;99.32;100867.97;4997367;28;20435;-73
2021/09/07 03:27:47;;;;;;;20.23;14.07;;;;;;;13.73;99.40;100869.63;4997190;28;20169;-73
2021/09/07 03:30:14;;;;;;;19.55;13.80;;;;;;;13.68;99.41;100861.88;5001102;28;20042;-73
2021/09/07 03:32:43;;;;;;;25.08;13.52;;;;;;;13.44;99.75;100825.72;5016452;28;20065;-73
2021/09/07 03:35:10;;;;;;;20.98;13.88;;;;;;;13.70;99.74;100865.31;5016277;28;20406;-73
2021/09/07 03:37:40;;;;;;;20.35;13.18;;;;;;;13.68;99.99;100864.53;5016659;28;20057;-73
2021/09/07 03:40:08;;;;;;;20.15;13.23;;;;;;;13.58;100.00;100851.69;5015636;28;20049;-73
2021/09/07 03:42:36;;;;;;;20.38;13.15;;;;;;;13.65;99.93;100867.41;5048211;28;20053;-73
2021/09/07 03:45:06;;;;;;;21.13;13.32;;;;;;;13.67;99.75;100860.16;5014793;28;20511;-73
2021/09/07 03:47:33;;;;;;;19.50;13.43;;;;;;;13.70;99.07;100866.19;5009571;28;20157;-73
2021/09/07 03:50:01;;;;;;;27.98;13.55;;;;;;;13.63;99.29;100862.16;4995800;28;20054;-73
2021/09/07 03:52:28;;;;;;;21.95;14.00;;;;;;;13.59;100.00;100857.94;5015818;28;20081;-73
2021/09/07 03:54:56;;;;;;;32.88;14.85;;;;;;;13.50;99.95;100843.28;5014959;28;20080;-73
2021/09/07 03:57:24;;;;;;;21.08;14.02;;;;;;;13.60;99.83;100854.28;5015870;28;20050;-73
2021/09/07 03:59:51;;;;;;;20.27;13.45;;;;;;;13.55;100.00;100851.03;5016057;28;20092;-73
2021/09/07 04:02:20;;;;;;;21.08;13.60;;;;;;;13.56;100.00;100847.38;5015725;28;20057;-73
2021/09/07 04:04:47;;;;;;;25.95;14.27;;;;;;;13.60;99.83;100848.94;5016035;28;20042;-73
2021/09/07 04:07:14;;;;;;;24.45;14.68;;;;;;;13.43;99.53;100832.06;5015708;28;20427;-73
2021/09/07 04:09:42;;;;;;;23.70;14.35;;;;;;;13.48;99.79;100852.38;5016000;28;20109;-73
2021/09/07 04:12:11;;;;;;;21.02;13.98;;;;;;;13.50;99.89;100854.00;5017260;28;20046;-73
2021/09/07 04:14:38;;;;;;;25.42;13.57;;;;;;;13.50;100.00;100853.16;5017898;28;20451;-73
2021/09/07 04:17:06;;;;;;;24.08;14.35;;;;;;;13.48;100.00;100852.38;5015377;28;20053;-74
2021/09/07 04:19:33;;;;;;;24.88;14.55;;;;;;;13.43;100.00;100852.63;5015727;28;20050;-73
2021/09/07 04:22:00;;;;;;;24.63;15.07;;;;;;;13.41;100.00;100855.41;5015180;28;20056;-73
2021/09/07 04:24:27;;;;;;;22.13;14.07;;;;;;;13.38;100.00;100857.41;5014953;28;20077;-73
2021/09/07 04:26:54;;;;;;;20.70;14.40;;;;;;;13.39;100.00;100862.69;5047434;28;20053;-72
2021/09/07 04:29:21;;;;;;;23.60;14.93;;;;;;;13.29;100.00;100843.63;5014331;28;20106;-73
2021/09/07 04:31:48;;;;;;;23.30;14.82;;;;;;;13.29;100.00;100848.97;5015466;28;20104;-73
2021/09/07 04:34:15;;;;;;;22.25;14.23;;;;;;;13.38;100.00;100863.66;5014236;28;20042;-73
2021/09/07 04:36:42;;;;;;;24.25;14.68;;;;;;;13.31;100.00;100855.09;5014179;28;20046;-75
2021/09/07 04:39:09;;;;;;;21.85;14.18;;;;;;;13.37;100.00;100861.94;5015313;28;20046;-74
2021/09/07 04:41:35;;;;;;;22.40;13.90;;;;;;;13.36;100.00;100865.56;5015009;28;20045;-73
2021/09/07 04:44:04;;;;;;;18.75;13.60;;;;;;;13.32;100.00;100861.34;5015305;28;20045;-73
2021/09/07 04:46:31;;;;;;;23.38;14.88;;;;;;;13.35;100.00;100868.34;5015147;28;20054;-72
2021/09/07 04:48:57;;;;;;;22.05;14.18;;;;;;;13.28;100.00;100859.78;5015116;28;20069;-72
2021/09/07 04:51:25;;;;;;;23.90;14.27;;;;;;;13.33;100.00;100872.94;5013632;28;20037;-72
2021/09/07 04:53:51;;;;;;;23.27;13.48;;;;;;;13.28;100.00;100867.84;5012133;28;20042;-73
2021/09/07 04:56:18;;;;;;;21.00;14.48;;;;;;;13.33;100.00;100867.56;5014710;28;20116;-73
2021/09/07 04:58:45;;;;;;;21.30;14.15;;;;;;;13.18;100.00;100830.88;5014890;28;20109;-72
2021/09/07 05:01:12;;;;;;;22.25;13.65;;;;;;;13.36;100.00;100859.34;5004397;28;20041;-72
2021/09/07 05:03:39;;;;;;;25.73;14.77;;;;;;;13.36;100.00;100862.88;4996062;28;20126;-72
2021/09/07 05:06:06;;;;;;;24.63;14.15;;;;;;;13.42;100.00;100862.47;4996707;28;20347;-73
2021/09/07 05:08:33;;;;;;;21.52;14.93;;;;;;;13.43;100.00;100858.88;5004493;28;20034;-72
2021/09/07 05:11:00;;;;;;;25.00;13.98;;;;;;;13.47;100.00;100853.34;5015026;28;20053;-73
2021/09/07 05:13:26;;;;;;;21.70;14.48;;;;;;;13.54;100.00;100862.72;5015236;28;20045;-73
2021/09/07 05:15:54;;;;;;;22.63;14.48;;;;;;;13.55;100.00;100856.38;5014965;28;20446;-73
2021/09/07 05:18:21;;;;;;;24.50;15.05;;;;;;;13.66;100.00;100859.28;5012650;28;20056;-72
2021/09/07 05:20:48;;;;;;;23.48;13.68;;;;;;;13.69;100.00;100859.06;5014979;28;20042;-75
2021/09/07 05:23:14;;;;;;;23.63;14.63;;;;;;;13.78;100.00;100857.63;5008228;28;20058;-73
2021/09/07 05:25:41;;;;;;;27.48;14.73;;;;;;;13.80;100.00;100849.50;5013166;28;20118;-72
2021/09/07 05:28:08;;;;;;;27.65;15.02;;;;;;;13.88;99.88;100857.06;5011772;28;20065;-73
2021/09/07 05:30:35;;;;;;;23.70;15.75;;;;;;;13.91;99.80;100857.72;5014252;28;20443;-76
2021/09/07 05:33:02;;;;;;;23.88;15.00;;;;;;;13.99;99.35;100850.03;5014160;28;20033;-73
2021/09/07 05:35:29;;;;;;;25.00;15.50;;;;;;;14.07;99.65;100854.91;5012980;28;20080;-76
2021/09/07 05:37:56;;;;;;;23.50;16.13;;;;;;;14.17;99.67;100860.53;5014326;28;20324;-74
2021/09/07 05:40:23;;;;;;;26.05;16.77;;;;;;;14.26;99.28;100859.94;5013395;28;20104;-75
2021/09/07 05:42:50;;;;;;;23.88;16.45;;;;;;;14.32;99.13;100855.13;5013957;28;20102;-73
2021/09/07 05:45:17;;;;;;;26.98;16.63;;;;;;;14.36;99.29;100862.00;5014175;28;20041;-74
2021/09/07 05:47:44;;;;;;;29.65;15.95;;;;;;;14.38;99.29;100863.63;5014376;28;20042;-74
2021/09/07 05:50:14;;;;;;;27.38;16.85;;;;;;;14.46;99.50;100873.00;5013103;28;20050;-73
2021/09/07 05:52:43;;;;;;;28.73;16.45;;;;;;;14.49;99.26;100870.97;5011822;28;20081;-78
2021/09/07 05:55:11;;;;;;;24.90;15.93;;;;;;;14.50;99.46;100864.63;5015398;28;20030;-80
2021/09/07 05:57:38;;;;;;;27.60;17.27;;;;;;;14.61;99.12;100873.81;5016066;28;20145;-75
2021/09/07 06:00:06;;;;;;;28.33;17.15;;;;;;;14.67;98.79;100874.25;5021591;28;20068;-74
2021/09/07 06:02:41;;;;;;;26.58;16.30;;;;;;;14.74;98.25;100871.19;5016120;28;20428;-75
2021/09/07 06:05:09;;;;;;;29.42;16.67;;;;;;;14.79;98.66;100869.94;5016004;28;20056;-74
2021/09/07 06:07:37;;;;;;;28.02;16.83;;;;;;;14.80;99.18;100871.66;5016937;28;20132;-76
2021/09/07 06:10:05;;;;;;;30.15;17.38;;;;;;;14.86;99.12;100877.59;5017176;28;20053;-76
2021/09/07 06:12:33;;;;;;;27.98;16.48;;;;;;;14.96;99.24;100881.34;5016642;28;20141;-75
2021/09/07 06:15:00;;;;;;;26.20;15.65;;;;;;;15.02;98.95;100886.31;5015161;28;20403;-73
2021/09/07 06:17:26;;;;;;;24.50;16.02;;;;;;;15.13;98.14;100882.88;5017769;28;20050;-71
2021/09/07 06:19:53;;;;;;;26.83;17.02;;;;;;;15.22;97.56;100881.41;5018033;28;20049;-71
2021/09/07 06:22:20;;;;;;;25.17;15.95;;;;;;;15.14;97.04;100868.47;5016753;28;20057;-70
2021/09/07 06:24:49;;;;;;;27.52;15.75;;;;;;;15.28;97.24;100886.34;5014228;28;20407;-72
2021/09/07 06:27:15;;;;;;;26.95;16.30;;;;;;;15.33;97.61;100886.03;5016135;28;20045;-73
2021/09/07 06:29:42;;;;;;;26.15;16.77;;;;;;;15.37;97.37;100890.22;5031243;28;20053;-71
2021/09/07 06:32:09;;;;;;;29.45;16.45;;;;;;;15.41;97.34;100891.72;5015813;28;20096;-70
2021/09/07 06:34:36;;;;;;;36.22;16.17;;;;;;;15.50;97.05;100895.59;5017092;28;20335;-69
2021/09/07 06:37:03;;;;;;;29.08;17.38;;;;;;;15.57;96.38;100893.31;5016517;28;20717;-72
2021/09/07 06:39:30;;;;;;;34.17;18.77;;;;;;;15.71;96.61;100887.84;5017616;28;20094;-74
2021/09/07 06:41:57;;;;;;;25.38;17.42;;;;;;;15.79;95.98;100898.06;5017694;28;20458;-75
2021/09/07 06:44:23;;;;;;;33.72;17.42;;;;;;;15.82;95.79;100889.78;5048891;28;20068;-74
2021/09/07 06:46:50;;;;;;;32.53;18.88;;;;;;;15.85;96.13;100891.41;5016550;28;20068;-74
2021/09/07 06:49:17;;;;;;;32.83;19.13;;;;;;;15.91;95.65;100895.47;5015711;28;20056;-74
2021/09/07 06:51:44;;;;;;;28.67;17.95;;;;;;;15.96;95.18;100898.72;5015805;28;20285;-73
2021/09/07 06:54:10;;;;;;;30.70;17.73;;;;;;;16.07;94.06;100904.16;5016810;28;20412;-74
2021/09/07 06:56:37;;;;;;;29.38;18.15;;;;;;;16.10;94.74;100908.47;5016885;28;20054;-74
2021/09/07 06:59:04;;;;;;;30.92;18.98;;;;;;;16.12;94.30;100899.31;5016748;28;20069;-74
2021/09/07 07:01:31;;;;;;;26.58;17.80;;;;;;;16.16;94.29;100908.03;5017324;28;20112;-75
2021/09/07 07:03:58;;;;;;;28.98;17.52;;;;;;;16.17;93.76;100904.38;5017064;28;20068;-75
2021/09/07 07:06:26;;;;;;;38.30;18.77;;;;;;;16.06;92.62;100880.91;5015482;28;20054;-75
2021/09/07 07:08:53;;;;;;;30.02;19.30;;;;;;;16.25;91.89;100911.91;5016979;28;20054;-72
2021/09/07 07:11:20;;;;;;;40.80;20.75;;;;;;;16.32;91.16;100904.22;5016981;28;20096;-73
2021/09/07 07:13:47;;;;;;;32.63;19.88;;;;;;;16.27;90.67;100885.69;5016749;28;20049;-74
2021/09/07 07:16:13;;;;;;;33.97;21.05;;;;;;;16.37;90.39;100907.44;5016801;28;20042;-74
2021/09/07 07:18:40;;;;;;;32.53;19.70;;;;;;;16.45;89.85;100905.03;5015570;28;20050;-74
2021/09/07 07:21:07;;;;;;;34.88;19.85;;;;;;;16.42;89.73;100895.38;5016391;28;20042;-74
2021/09/07 07:23:34;;;;;;;33.65;20.40;;;;;;;16.47;90.03;100903.09;5014750;28;20054;-73
2021/09/07 07:26:01;;;;;;;36.95;20.65;;;;;;;16.41;90.94;100890.91;5045449;28;20101;-73
2021/09/07 07:28:27;;;;;;;34.47;20.75;;;;;;;16.67;89.33;100917.75;5016190;28;20435;-73
2021/09/07 07:30:54;;;;;;;32.72;20.75;;;;;;;16.81;88.30;100913.16;5014891;28;20136;-73
2021/09/07 07:33:21;;;;;;;40.00;21.23;;;;;;;16.89;87.32;100915.28;5012364;28;20050;-73
2021/09/07 07:35:48;;;;;;;36.80;21.40;;;;;;;16.83;87.62;100898.59;5016239;28;20052;-73
2021/09/07 07:38:15;;;;;;;36.80;21.33;;;;;;;16.96;86.37;100917.38;5014916;28;20172;-73
2021/09/07 07:40:42;;;;;;;39.03;20.92;;;;;;;17.08;87.07;100914.78;5015841;28;20050;-74
2021/09/07 07:43:08;;;;;;;41.67;21.85;;;;;;;17.23;85.45;100912.75;4998766;28;20113;-73
2021/09/07 07:45:35;;;;;;;44.22;20.02;;;;;;;17.23;85.81;100913.59;5047377;28;20061;-73
2021/09/07 07:48:02;;;;;;;44.65;22.27;;;;;;;17.34;84.30;100910.03;5015899;28;20049;-73
2021/09/07 07:50:30;;;;;;;39.90;21.95;;;;;;;17.51;85.35;100918.69;5015849;28;20038;-73
2021/09/07 07:53:02;;;;;;;42.15;21.95;;;;;;;17.65;83.27;100918.44;5015913;28;20048;-74
2021/09/07 07:55:30;;;;;;;58.67;23.73;;;;;;;17.76;83.38;100914.91;4999188;28;20042;-75
2021/09/07 07:58:00;;;;;;;409.67;46.00;;;;;;;17.77;82.16;100911.22;5014694;28;20107;-75
2021/09/07 08:00:27;;;;;;;45.90;23.95;;;;;;;17.82;81.74;100910.00;5015940;28;20044;-72
2021/09/07 08:02:54;;;;;;;40.00;23.88;;;;;;;17.87;81.68;100913.19;5015816;28;20044;-75
2021/09/07 08:05:35;;;;;;;37.78;22.80;;;;;;;17.86;81.27;100919.56;5015255;28;20125;-70
2021/09/07 08:08:02;;;;;;;37.03;23.33;;;;;;;17.88;81.29;100923.00;5012565;28;20045;-71
2021/09/07 08:10:29;;;;;;;40.17;23.17;;;;;;;18.07;78.36;100937.78;5015786;28;20599;-70
2021/09/07 08:12:56;;;;;;;45.38;23.10;;;;;;;18.15;77.61;100929.91;5015463;28;20461;-70
2021/09/07 08:15:23;;;;;;;33.88;22.42;;;;;;;18.21;77.85;100934.81;5015404;28;20041;-70
2021/09/07 08:17:50;;;;;;;39.55;22.77;;;;;;;18.34;76.36;100933.81;5013901;28;20042;-70
2021/09/07 08:20:17;;;;;;;35.63;21.10;;;;;;;18.33;77.02;100927.53;5015412;28;20046;-70
2021/09/07 08:22:44;;;;;;;38.97;22.38;;;;;;;18.47;75.97;100934.53;5015646;28;20046;-70
2021/09/07 08:25:11;;;;;;;36.50;20.40;;;;;;;18.49;77.19;100921.72;5014156;28;20058;-71
2021/09/07 08:27:39;;;;;;;31.95;20.52;;;;;;;18.50;77.88;100920.75;5015451;28;20050;-72
2021/09/07 08:30:06;;;;;;;34.10;20.42;;;;;;;18.61;78.15;100919.84;5015576;28;20050;-72
2021/09/07 08:32:38;;;;;;;36.65;20.90;;;;;;;18.75;76.34;100926.81;5003525;28;20034;-70
2021/09/07 08:35:05;;;;;;;40.33;21.02;;;;;;;19.01;70.83;100929.16;4999582;28;20108;-70
2021/09/07 08:37:32;;;;;;;52.15;20.85;;;;;;;19.05;72.55;100933.34;5019682;28;20455;-70
2021/09/07 08:39:59;;;;;;;35.47;21.02;;;;;;;19.17;71.73;100930.59;5015299;28;20717;-69
2021/09/07 08:42:26;;;;;;;33.10;19.55;;;;;;;19.18;73.03;100935.03;5014217;28;20037;-69
2021/09/07 08:44:53;;;;;;;37.50;19.17;;;;;;;19.26;73.03;100936.09;5014967;28;20054;-70
2021/09/07 08:47:20;;;;;;;36.95;21.00;;;;;;;19.35;72.79;100933.56;5014855;28;20371;-70
2021/09/07 08:49:50;;;;;;;41.85;20.42;;;;;;;19.39;71.33;100927.75;5046670;28;20049;-69
2021/09/07 08:52:22;;;;;;;;;;;;;;;19.44;72.10;100929.22;5015606;28;20539;-69
2021/09/07 08:54:49;;;;;;;40.65;20.83;;;;;;;19.70;67.23;100934.19;5014389;28;19929;-69
2021/09/07 08:57:16;;;;;;;34.10;18.35;;;;;;;19.72;69.15;100933.06;5014816;28;20121;-69
2021/09/07 08:59:59;;;;;;;36.15;18.67;;;;;;;20.01;66.90;100931.50;5013657;28;20116;-69
2021/09/07 09:02:27;;;;;;;31.05;17.75;;;;;;;20.00;68.52;100930.66;5010075;28;20049;-69
2021/09/07 09:04:55;;;;;;;37.30;18.17;;;;;;;20.00;68.19;100929.81;5013679;28;20046;-69
2021/09/07 09:07:25;;;;;;;36.00;18.00;;;;;;;20.07;69.08;100933.69;5014768;28;20053;-69
2021/09/07 09:09:53;;;;;;;31.40;18.38;;;;;;;20.10;69.17;100933.38;5014631;28;20042;-69
2021/09/07 09:12:35;;;;;;;31.15;17.60;;;;;;;20.14;69.35;100931.25;5014865;28;20065;-69
2021/09/07 09:15:13;;;;;;;37.08;17.88;;;;;;;20.20;69.73;100931.59;5014936;28;20468;-69
2021/09/07 09:17:40;;;;;;;40.03;18.90;;;;;;;20.41;64.81;100930.63;5046821;28;20351;-68
2021/09/07 09:20:19;;;;;;;36.28;17.60;;;;;;;20.48;66.98;100926.38;5014851;28;20064;-69
2021/09/07 09:22:51;;;;;;;29.63;16.48;;;;;;;20.48;68.07;100929.06;5014251;28;20133;-70
2021/09/07 09:25:24;;;;;;;31.27;17.05;;;;;;;20.83;62.96;100932.28;5011749;28;20128;-69
2021/09/07 09:27:54;;;;;;;43.08;17.98;;;;;;;21.11;62.33;100927.00;5014711;28;20312;-69
2021/09/07 09:30:36;;;;;;;33.67;15.68;;;;;;;21.12;62.18;100927.84;5017771;28;20038;-69
2021/09/07 09:33:04;;;;;;;31.02;16.48;;;;;;;21.07;63.66;100931.00;5016664;28;20335;-69
2021/09/07 09:35:42;;;;;;;37.10;15.65;;;;;;;21.21;59.09;100918.84;5018162;28;20053;-69
2021/09/07 09:38:09;;;;;;;27.65;13.70;;;;;;;21.37;58.29;100918.25;5017523;28;20045;-69
2021/09/07 09:40:36;;;;;;;27.92;15.32;;;;;;;21.48;56.29;100922.66;5018757;28;20347;-75
2021/09/07 09:43:32;;;;;;;33.08;14.57;;;;;;;21.52;55.20;100918.63;5018897;28;20042;-69
2021/09/07 09:46:25;;;;;;;27.27;15.00;;;;;;;21.70;54.72;100926.91;5014361;28;20058;-68
2021/09/07 09:49:10;;;;;;;32.10;15.40;;;;;;;21.78;53.32;100920.72;5019004;28;20117;-69
2021/09/07 09:51:37;;;;;;;30.95;15.02;;;;;;;21.75;57.03;100907.47;5018651;28;20057;-69
2021/09/07 09:54:21;;;;;;;31.83;16.23;;;;;;;21.83;58.89;100913.00;5018329;28;20431;-69
2021/09/07 09:56:49;;;;;;;30.10;16.60;;;;;;;21.90;59.20;100917.84;5017285;28;20073;-68
2021/09/07 09:59:18;;;;;;;27.73;16.15;;;;;;;21.90;60.98;100915.94;5017759;28;20455;-69
2021/09/07 10:01:45;;;;;;;27.10;15.85;;;;;;;22.08;59.89;100910.59;5049974;28;20049;-69
2021/09/07 10:04:14;;;;;;;26.25;15.48;;;;;;;22.10;60.19;100914.00;5017681;28;20046;-68
2021/09/07 10:06:42;;;;;;;29.83;15.80;;;;;;;22.09;60.07;100906.88;5016841;28;20069;-69
2021/09/07 10:09:09;;;;;;;30.88;15.18;;;;;;;22.26;58.85;100915.22;5017520;28;20046;-69
2021/09/07 10:11:36;;;;;;;21.17;14.05;;;;;;;22.30;59.76;100907.59;5016623;28;20037;-69
2021/09/07 10:14:07;;;;;;;30.48;15.88;;;;;;;22.53;56.83;100908.06;5016447;28;20048;-69
2021/09/07 10:19:14;;;;;;;27.38;14.65;;;;;;;22.64;58.51;100905.13;5016364;28;20453;-69
2021/09/07 10:24:19;;;;;;;28.13;15.55;;;;;;;22.72;57.61;100906.19;5015147;28;20104;-69
2021/09/07 10:26:47;;;;;;;25.70;14.48;;;;;;;22.82;56.12;100893.34;5009137;28;20378;-70
2021/09/07 10:29:21;;;;;;;28.95;15.48;;;;;;;23.07;55.04;100896.28;5017300;28;20058;-69
2021/09/07 10:31:53;;;;;;;28.98;14.40;;;;;;;23.05;55.07;100892.88;5015091;28;20050;-69
2021/09/07 10:34:24;;;;;;;28.85;14.25;;;;;;;23.14;54.75;100891.06;5017062;28;20112;-69
2021/09/07 10:37:07;;;;;;;27.58;13.68;;;;;;;23.02;54.63;100887.75;5014537;28;20038;-69
2021/09/07 10:39:42;;;;;;;23.85;12.77;;;;;;;23.19;53.29;100883.28;5016465;28;20454;-69
2021/09/07 10:42:33;;;;;;;32.33;12.85;;;;;;;23.28;54.06;100876.03;5017235;28;20049;-72
2021/09/07 10:45:00;;;;;;;28.67;12.88;;;;;;;23.41;51.62;100878.34;5049310;28;20046;-72
2021/09/07 10:47:45;;;;;;;33.28;12.40;;;;;;;23.45;51.47;100877.00;5017067;28;20065;-68
2021/09/07 10:50:12;;;;;;;26.67;13.05;;;;;;;23.50;50.72;100873.78;5048556;28;20176;-70
2021/09/07 10:52:38;;;;;;;22.10;11.90;;;;;;;23.49;50.96;100872.97;5016479;28;20046;-69
2021/09/07 10:55:11;;;;;;;28.48;12.30;;;;;;;23.64;50.29;100875.06;5016724;28;20101;-70
2021/09/07 10:57:39;;;;;;;21.55;11.18;;;;;;;23.77;50.77;100864.56;5014872;28;20046;-69
2021/09/07 11:00:21;;;;;;;23.25;11.07;;;;;;;23.87;51.20;100870.75;5016549;28;20432;-69
2021/09/07 11:02:48;;;;;;;23.02;11.07;;;;;;;24.00;47.98;100874.88;5016353;28;20042;-69
2021/09/07 11:05:44;;;;;;;22.13;11.98;;;;;;;24.17;45.74;100870.38;5016933;28;20053;-75
2021/09/07 11:08:18;;;;;;;24.42;11.63;;;;;;;24.14;47.81;100870.72;5015835;28;20050;-74
2021/09/07 11:10:52;;;;;;;22.92;11.85;;;;;;;24.16;48.00;100874.13;5048964;28;20427;-72
2021/09/07 11:13:29;;;;;;;22.40;10.75;;;;;;;24.16;47.04;100857.75;5016496;28;20054;-73
2021/09/07 11:16:01;;;;;;;36.78;13.00;;;;;;;24.14;49.12;100843.44;5002014;28;20120;-75
2021/09/07 11:18:32;;;;;;;20.27;11.02;;;;;;;24.28;46.60;100856.44;5018612;28;20049;-69
2021/09/07 11:21:04;;;;;;;18.50;10.95;;;;;;;24.38;45.84;100844.50;5048894;28;20046;-69